Yardville, NJ

11:55 AM EDT on March 27, 2015 (GMT -0400)
Trenton Mercer | | Change Station
CLOSE
Current Station
Airport
Location: Trenton,
Elevation: 210 ft
Nearby Weather Stations

Elev 210 ft 40.28 °N, 74.82 °W | Updated 1 hour ago

Overcast
Overcast
41 °F
Feels Like 36 °F
N
7
Wind Variable Wind from NW

Today
High -- | Low -- °F
--% Chance of Precip.
Yesterday
High -- | Low -- °F
Precip. -- in
6:50 AM 7:17 PM
First Quarter, 53% visible
Pressure 29.77 in
Visibility 7.0 miles
Clouds Overcast 6500 ft
Windchill 36 °F
Dew Point 35 °F
Humidity 79%
Rainfall 0.32 in
Snow Depth Not available.
UV 2 out of 12
Pollen 5.40 out of 12
Air Quality Not available.
Flu Activity Not available.
METAR KTTN 271453Z 32006KT 7SM OVC065 05/02 A2978 RMK AO2 SLP081 T00500017 53007

More Conditions Fewer Conditions

Pressure 29.77 in
Visibility 7.0 miles
Clouds Overcast 6500 ft
Windchill 36 °F
Dew Point 35 °F
Humidity 79%
Rainfall 0.32 in
Snow Depth Not available.
UV 2 out of 12
Pollen 5.40 out of 12
Air Quality Not available.
Flu Activity Not available.
METAR KTTN 271453Z 32006KT 7SM OVC065 05/02 A2978 RMK AO2 SLP081 T00500017 53007

More Conditions Fewer Conditions

10-Day Weather Forecast

Almanac

Astronomy

Mar. 27, 2015 Rise Set
Actual Time
Civil Twilight
Nautical Twilight
Astronomical Twilight
Moon
Length of Visible Light
Length of Day
Tomorrow will be .
, % of the Moon is Illuminated

Today's Extremes

State Highs State Lows

Community

WunderPhotos

Upload Photos

1,808,762 photos uploaded!

WunderBlogs® & News

Nearby

Air Quality

  Air Quality AQ Index Pollutant
Not available.

Snow Depth

Station Depth Elevation

Earthquake Activity

City Distance Mag. Time & Date
Minimum magnitude displayed is 2.5.

Coastal Water Temperatures

Place Temperature

Stations

Nearby Weather Stations

Station Location Temp. Windchill Dew Point Humidity Wind Precip. Elev Updated Type